Time;durP1;ratioP1;P1;durP2;ratioP2;P2;SDS_P1;SDS_P2;PMS_P1;PMS_P2;Temp;Humidity;BMP_temperature;BMP_pressure;BME280_temperature;BME280_humidity;BME280_pressure;Samples;Min_cycle;Max_cycle;Signal;HPM_P1;HPM_P2
2022/08/10 19:47:53;;;;;;;38.33;24.92;;;26.80;99.90;;;;;;1924698;23;20370;-88
2022/08/10 19:50:33;;;;;;;38.17;24.45;;;26.80;99.90;;;;;;4868461;29;20116;-91
2022/08/10 19:53:28;;;;;;;38.40;26.40;;;26.80;99.90;;;;;;4884482;29;20033;-92
2022/08/10 19:56:21;;;;;;;37.22;24.70;;;26.80;99.90;;;;;;4868786;29;20033;-93
2022/08/10 19:59:10;;;;;;;40.53;25.08;;;26.70;99.90;;;;;;4866047;29;20029;-93
2022/08/10 20:01:38;;;;;;;37.92;25.23;;;26.70;99.90;;;;;;4870164;29;20039;-92
2022/08/10 20:04:13;;;;;;;34.22;24.10;;;26.70;99.90;;;;;;4868804;29;20029;-91
2022/08/10 20:07:08;;;;;;;40.13;24.92;;;26.70;99.90;;;;;;4878219;29;20041;-93
2022/08/10 20:09:54;;;;;;;33.78;24.55;;;26.70;99.90;;;;;;4879739;29;20033;-92
2022/08/10 20:12:53;;;;;;;37.88;25.80;;;26.70;99.90;;;;;;4880748;29;20029;-93
2022/08/10 20:15:30;;;;;;;32.40;23.67;;;26.70;99.90;;;;;;4883064;29;20037;-93
2022/08/10 20:19:05;;;;;;;;;;;;;;;;;;;;;
2022/08/10 20:22:08;;;;;;;33.72;23.13;;;26.70;99.90;;;;;;4836856;29;20082;-93
2022/08/10 20:24:50;;;;;;;35.70;22.02;;;26.70;99.90;;;;;;4891481;23;20443;-93
2022/08/10 20:27:54;;;;;;;35.05;22.13;;;26.70;99.90;;;;;;4893290;29;20458;-94
2022/08/10 20:30:31;;;;;;;32.42;21.70;;;26.60;99.90;;;;;;4871582;29;20402;-92
2022/08/10 20:33:22;;;;;;;31.48;20.30;;;26.60;99.90;;;;;;4870515;29;20112;-93
2022/08/10 20:35:49;;;;;;;36.58;22.42;;;26.60;99.90;;;;;;4869435;29;20053;-92
2022/08/10 20:38:21;;;;;;;36.42;21.88;;;26.50;99.90;;;;;;4887253;29;20387;-92
2022/08/10 20:41:27;;;;;;;33.03;21.17;;;26.40;99.90;;;;;;4877746;29;20056;-93
2022/08/10 20:44:04;;;;;;;36.10;20.75;;;26.30;99.90;;;;;;4862588;29;20041;-92
2022/08/10 20:47:00;;;;;;;32.50;20.23;;;26.20;99.90;;;;;;4891358;29;20040;-92
2022/08/10 20:49:51;;;;;;;34.17;21.15;;;26.20;99.90;;;;;;4873654;29;20033;-93
2022/08/10 20:52:23;;;;;;;34.60;19.27;;;26.20;99.90;;;;;;4872793;29;20120;-91
2022/08/10 20:55:07;;;;;;;31.58;19.08;;;26.20;99.90;;;;;;4869837;29;20097;-94
2022/08/10 20:57:52;;;;;;;35.85;20.17;;;26.10;99.90;;;;;;4865605;29;20039;-92
2022/08/10 21:00:21;;;;;;;32.58;19.98;;;26.10;99.90;;;;;;4886385;29;20036;-92
2022/08/10 21:03:12;;;;;;;26.85;18.95;;;26.20;99.90;;;;;;4866453;29;20029;-93
2022/08/10 21:06:10;;;;;;;30.40;19.38;;;26.20;99.90;;;;;;4884792;29;20074;-94
2022/08/10 21:09:06;;;;;;;29.98;19.30;;;26.30;99.90;;;;;;4871767;29;20483;-94
2022/08/10 21:12:09;;;;;;;32.15;18.80;;;26.30;99.90;;;;;;4868638;29;20033;-93
2022/08/10 21:14:41;;;;;;;32.25;18.98;;;26.20;99.90;;;;;;4887965;29;20028;-92
2022/08/10 21:17:23;;;;;;;39.10;20.05;;;26.20;99.90;;;;;;4884256;29;20035;-92
2022/08/10 21:20:27;;;;;;;32.33;18.05;;;26.20;99.90;;;;;;4886193;29;20123;-94
2022/08/10 21:22:57;;;;;;;31.38;18.23;;;26.10;99.90;;;;;;4882640;29;20039;-93
2022/08/10 21:25:31;;;;;;;30.02;20.42;;;26.00;99.90;;;;;;4866288;29;20112;-93
2022/08/10 22:52:28;;;;;;;29.10;11.77;;;25.60;99.90;;;;;;4863786;29;20148;-92
2022/08/10 23:01:02;;;;;;;22.98;11.55;;;25.60;99.90;;;;;;4865798;29;20038;-92
2022/08/10 23:03:36;;;;;;;33.15;11.85;;;25.50;99.90;;;;;;4849298;29;20101;-92
2022/08/10 23:06:10;;;;;;;22.90;11.55;;;25.50;99.90;;;;;;4849061;29;20137;-91
2022/08/10 23:08:49;;;;;;;25.08;10.95;;;25.50;99.90;;;;;;4848545;29;20038;-92
2022/08/10 23:11:29;;;;;;;31.27;11.38;;;25.50;99.90;;;;;;4848127;29;20112;-92
2022/08/10 23:14:08;;;;;;;20.85;10.20;;;25.50;99.90;;;;;;4847653;29;20067;-93
2022/08/10 23:20:12;;;;;;;20.58;9.88;;;25.50;99.90;;;;;;4863299;29;20037;-93
2022/08/10 23:22:51;;;;;;;23.55;10.00;;;25.50;99.90;;;;;;4849583;29;20026;-92
2022/08/10 23:25:27;;;;;;;18.25;10.52;;;25.50;99.90;;;;;;4862224;29;20088;-93
2022/08/10 23:28:02;;;;;;;23.00;10.18;;;25.50;99.90;;;;;;4867034;29;20144;-93
2022/08/10 23:30:38;;;;;;;22.80;11.38;;;25.50;99.90;;;;;;4867549;29;20103;-92
2022/08/10 23:33:07;;;;;;;23.67;10.85;;;25.50;99.90;;;;;;4866589;29;20036;-94
2022/08/10 23:36:05;;;;;;;21.35;9.00;;;25.50;99.90;;;;;;4866422;29;20032;-92
2022/08/10 23:38:33;;;;;;;15.48;10.02;;;25.50;99.90;;;;;;4810886;29;20125;-94
2022/08/10 23:41:02;;;;;;;26.00;9.85;;;25.50;99.90;;;;;;4811052;29;20023;-93
2022/08/10 23:43:35;;;;;;;19.90;9.77;;;25.40;99.90;;;;;;4811460;29;20046;-92
2022/08/10 23:46:04;;;;;;;18.63;9.02;;;25.50;99.90;;;;;;4795452;29;20198;-93
2022/08/10 23:48:35;;;;;;;18.25;9.85;;;25.50;99.90;;;;;;4796580;29;20044;-91
2022/08/10 23:51:09;;;;;;;20.73;9.65;;;25.50;99.90;;;;;;4813079;29;20127;-93
2022/08/10 23:53:41;;;;;;;19.35;9.48;;;25.50;99.90;;;;;;4815219;29;20378;-93
2022/08/10 23:56:12;;;;;;;24.48;12.40;;;25.50;99.90;;;;;;4814053;29;20054;-92
2022/08/10 23:58:45;;;;;;;29.15;14.20;;;25.60;99.90;;;;;;4815054;29;20034;-93
